Time;durP1;ratioP1;P1;durP2;ratioP2;P2;SDS_P1;SDS_P2;PMS_P1;PMS_P2;Temp;Humidity;BMP_temperature;BMP_pressure;BME280_temperature;BME280_humidity;BME280_pressure;Samples;Min_cycle;Max_cycle;Signal;HPM_P1;HPM_P2
2021/12/02 00:02:11;;;;;;;2.38;0.40;;;6.00;90.80;;;;;;6190900;23;20013;-92
2021/12/02 00:04:40;;;;;;;3.70;0.30;;;6.10;93.60;;;;;;6191719;23;20021;-91
2021/12/02 00:07:07;;;;;;;8.57;0.20;;;6.00;93.60;;;;;;6165399;23;20067;-91
2021/12/02 00:09:36;;;;;;;5.13;0.30;;;5.90;90.70;;;;;;6190539;23;20020;-92
2021/12/02 00:12:05;;;;;;;1.88;0.40;;;5.80;88.40;;;;;;6215370;23;20452;-92
2021/12/02 00:14:40;;;;;;;1.33;0.28;;;6.00;96.50;;;;;;6190289;23;20024;-92
2021/12/02 00:17:24;;;;;;;7.18;0.30;;;6.10;96.20;;;;;;6165107;23;20516;-92
2021/12/02 00:23:08;;;;;;;0.98;0.20;;;6.30;97.40;;;;;;6216838;23;20016;-91
2021/12/02 00:25:35;;;;;;;6.68;0.43;;;6.30;97.00;;;;;;6215274;23;20018;-91
2021/12/02 00:28:04;;;;;;;0.85;0.40;;;6.40;96.40;;;;;;6216649;23;20047;-91
2021/12/02 00:30:32;;;;;;;6.72;0.75;;;6.30;93.90;;;;;;6215790;23;20103;-91
2021/12/02 00:33:01;;;;;;;2.20;0.25;;;6.30;95.30;;;;;;6190424;23;20524;-91
2021/12/02 00:35:28;;;;;;;2.38;0.43;;;6.20;95.80;;;;;;6190575;23;20033;-91
2021/12/02 00:38:00;;;;;;;8.27;1.05;;;6.20;97.00;;;;;;6191339;23;20020;-91
2021/12/02 00:40:27;;;;;;;2.83;1.05;;;6.20;95.90;;;;;;6191624;23;20013;-91
2021/12/02 00:42:56;;;;;;;3.33;0.30;;;6.10;96.60;;;;;;6191111;23;20080;-92
2021/12/02 00:45:23;;;;;;;0.65;0.40;;;6.10;93.20;;;;;;6215836;23;20020;-92
2021/12/02 00:47:53;;;;;;;2.92;0.50;;;6.20;97.50;;;;;;6166057;23;20025;-91
2021/12/02 00:50:24;;;;;;;4.22;0.40;;;6.20;93.60;;;;;;6166033;23;20024;-92
2021/12/02 00:52:56;;;;;;;4.05;0.35;;;6.30;97.00;;;;;;6217068;23;20047;-91
2021/12/02 00:55:25;;;;;;;2.40;0.30;;;6.40;96.70;;;;;;6217033;23;20028;-92
2021/12/02 00:57:53;;;;;;;1.95;0.20;;;6.30;96.10;;;;;;6189733;23;20017;-92
2021/12/02 01:00:23;;;;;;;2.10;0.20;;;6.30;96.40;;;;;;6215035;23;20429;-91
2021/12/02 01:02:51;;;;;;;1.50;0.22;;;6.30;96.50;;;;;;6165223;23;20043;-91
2021/12/02 01:05:21;;;;;;;0.55;0.30;;;6.30;96.50;;;;;;6190266;23;20028;-93
2021/12/02 01:07:49;;;;;;;3.03;0.30;;;6.30;96.10;;;;;;6189100;23;20027;-92
2021/12/02 01:10:16;;;;;;;3.70;0.57;;;6.30;97.00;;;;;;6165820;23;20017;-92
2021/12/02 01:12:46;;;;;;;3.38;0.20;;;6.20;95.00;;;;;;6165902;23;20026;-93
2021/12/02 01:15:15;;;;;;;2.92;0.30;;;6.10;95.50;;;;;;6190387;23;20079;-92
2021/12/02 01:17:42;;;;;;;2.40;0.30;;;5.90;96.00;;;;;;6190794;23;20040;-92
2021/12/02 01:20:10;;;;;;;8.35;0.93;;;5.90;97.50;;;;;;6215214;23;20016;-91
2021/12/02 01:22:42;;;;;;;5.30;1.27;;;5.80;96.90;;;;;;6214619;23;20322;-92
2021/12/02 01:25:13;;;;;;;3.40;0.40;;;5.80;93.30;;;;;;6215579;23;20016;-92
2021/12/02 01:27:41;;;;;;;3.00;0.40;;;5.80;96.10;;;;;;6216758;23;20024;-92
2021/12/02 01:30:10;;;;;;;4.85;0.93;;;5.90;98.10;;;;;;6190481;23;20112;-91
2021/12/02 01:32:47;;;;;;;4.45;0.65;;;5.90;95.70;;;;;;6189934;23;20032;-92
2021/12/02 01:35:18;;;;;;;4.10;0.55;;;5.90;94.80;;;;;;6166000;23;20119;-92
2021/12/02 01:37:46;;;;;;;11.85;1.13;;;6.00;94.50;;;;;;6189834;23;20033;-93
2021/12/02 01:40:13;;;;;;;5.35;0.70;;;5.90;94.30;;;;;;6165085;23;20027;-92
2021/12/02 01:42:40;;;;;;;7.90;0.57;;;5.90;93.90;;;;;;6189867;23;20334;-92
2021/12/02 01:45:13;;;;;;;3.25;0.85;;;5.80;94.90;;;;;;6188650;23;20503;-91
2021/12/02 01:47:47;;;;;;;4.10;0.70;;;5.90;97.30;;;;;;6190487;23;20039;-92
2021/12/02 01:50:22;;;;;;;4.28;0.32;;;5.90;96.30;;;;;;6191185;23;20023;-91
2021/12/02 01:52:58;;;;;;;8.18;0.57;;;6.00;94.40;;;;;;6164946;23;20025;-92
2021/12/02 01:55:27;;;;;;;4.30;0.22;;;5.70;95.50;;;;;;6167064;23;20417;-92
2021/12/02 01:58:03;;;;;;;2.80;0.85;;;5.80;95.50;;;;;;6214921;23;20025;-92
2021/12/02 02:00:46;;;;;;;4.88;0.30;;;5.70;95.80;;;;;;6190221;23;20027;-91
2021/12/02 02:03:15;;;;;;;4.53;0.77;;;5.80;98.20;;;;;;6190679;23;20020;-92
2021/12/02 02:05:50;;;;;;;4.68;0.43;;;5.90;98.10;;;;;;6190100;23;20080;-92
2021/12/02 02:08:22;;;;;;;9.50;0.77;;;5.80;92.40;;;;;;6165570;23;20043;-92
2021/12/02 02:10:49;;;;;;;2.83;0.40;;;5.90;96.60;;;;;;6189620;23;20445;-92
2021/12/02 02:13:19;;;;;;;2.33;0.20;;;5.90;97.60;;;;;;6215195;23;20120;-92
2021/12/02 02:15:51;;;;;;;0.28;0.10;;;6.00;96.10;;;;;;6190169;23;20016;-92
2021/12/02 02:18:23;;;;;;;5.05;0.38;;;6.00;95.90;;;;;;6216011;23;20437;-92
2021/12/02 02:23:28;;;;;;;6.55;0.30;;;6.00;96.80;;;;;;6189893;23;20016;-94
2021/12/02 02:25:56;;;;;;;1.45;0.40;;;5.90;95.40;;;;;;6190087;23;20020;-92
2021/12/02 02:28:23;;;;;;;4.80;0.77;;;5.90;96.30;;;;;;6189870;23;20016;-92
2021/12/02 02:30:51;;;;;;;5.03;0.30;;;5.90;96.40;;;;;;6215353;23;20075;-93
2021/12/02 02:33:19;;;;;;;1.95;0.98;;;6.00;95.90;;;;;;6216976;23;20048;-91
2021/12/02 02:35:47;;;;;;;1.20;0.60;;;5.90;95.10;;;;;;6192256;23;20021;-92
2021/12/02 02:38:18;;;;;;;5.88;0.47;;;6.00;93.70;;;;;;6166804;23;20345;-92
2021/12/02 02:40:54;;;;;;;7.20;0.60;;;6.00;96.60;;;;;;6216856;23;20020;-91
2021/12/02 02:43:24;;;;;;;3.05;0.50;;;5.80;90.50;;;;;;6167244;23;20027;-92
2021/12/02 02:45:52;;;;;;;2.78;0.17;;;5.70;91.80;;;;;;6216784;23;20023;-92
2021/12/02 02:48:22;;;;;;;2.60;0.28;;;5.80;94.00;;;;;;6216234;23;20012;-92
2021/12/02 02:50:55;;;;;;;2.90;0.38;;;5.80;94.40;;;;;;6216878;23;20044;-92
2021/12/02 02:53:29;;;;;;;4.80;0.43;;;5.70;93.10;;;;;;6167855;23;20024;-92
2021/12/02 02:58:59;;;;;;;3.97;0.38;;;5.90;94.10;;;;;;6191395;23;20025;-92
2021/12/02 03:17:30;;;;;;;6.80;0.45;;;5.80;93.80;;;;;;6217882;23;20437;-91
2021/12/02 03:19:58;;;;;;;3.67;0.52;;;5.80;93.60;;;;;;6216251;23;20016;-91
2021/12/02 03:22:26;;;;;;;2.85;1.92;;;5.80;94.90;;;;;;6191594;23;20520;-92
2021/12/02 03:24:54;;;;;;;4.80;0.98;;;5.70;93.60;;;;;;6166379;23;20020;-91
2021/12/02 03:27:24;;;;;;;4.95;0.32;;;5.50;92.30;;;;;;6191682;23;20012;-91
2021/12/02 03:29:51;;;;;;;2.83;0.70;;;5.50;91.70;;;;;;6190820;23;20441;-92
2021/12/02 03:32:18;;;;;;;5.03;0.60;;;5.60;94.50;;;;;;6215987;23;20036;-92
2021/12/02 03:34:45;;;;;;;1.90;0.95;;;5.60;96.20;;;;;;6216107;23;20077;-92
2021/12/02 03:37:16;;;;;;;4.07;0.38;;;5.30;93.00;;;;;;6191262;23;20020;-92
2021/12/02 03:39:44;;;;;;;1.60;0.50;;;5.40;95.80;;;;;;6217435;23;20017;-92
2021/12/02 03:42:13;;;;;;;2.38;0.60;;;5.60;95.00;;;;;;6165922;23;20021;-91
2021/12/02 03:44:40;;;;;;;1.80;0.50;;;5.60;93.80;;;;;;6217831;23;20042;-92
2021/12/02 03:47:07;;;;;;;3.30;0.50;;;5.70;95.40;;;;;;6166033;23;20344;-92
2021/12/02 03:49:35;;;;;;;1.55;0.22;;;5.60;94.10;;;;;;6216346;23;20017;-92
2021/12/02 03:52:03;;;;;;;6.13;0.52;;;5.70;95.20;;;;;;6166899;23;20021;-92
2021/12/02 03:54:30;;;;;;;3.05;0.35;;;5.70;93.60;;;;;;6191729;23;20017;-91
2021/12/02 03:57:05;;;;;;;4.07;0.40;;;5.60;93.50;;;;;;6218189;23;20017;-92
2021/12/02 03:59:36;;;;;;;2.33;0.30;;;5.60;94.10;;;;;;6191052;23;20017;-92
2021/12/02 04:02:03;;;;;;;1.38;0.35;;;5.70;94.10;;;;;;6191371;23;20009;-92
2021/12/02 04:04:31;;;;;;;1.83;0.20;;;5.70;91.60;;;;;;6191413;23;20349;-91
2021/12/02 04:07:00;;;;;;;1.52;0.32;;;5.80;93.60;;;;;;6166339;23;20023;-91
2021/12/02 04:09:34;;;;;;;2.58;0.68;;;5.70;93.60;;;;;;6191054;23;20017;-91
2021/12/02 04:12:14;;;;;;;4.32;0.43;;;5.70;91.80;;;;;;6166740;23;20041;-93
2021/12/02 04:17:43;;;;;;;4.30;0.93;;;5.70;93.60;;;;;;6216958;23;20024;-92
2021/12/02 04:20:16;;;;;;;3.70;0.40;;;5.80;92.50;;;;;;6215311;23;20027;-92
2021/12/02 04:22:45;;;;;;;5.22;0.60;;;5.60;93.40;;;;;;6166064;23;20021;-92
2021/12/02 04:25:13;;;;;;;4.30;0.50;;;5.50;93.50;;;;;;6190635;23;20071;-92
2021/12/02 04:27:41;;;;;;;4.18;0.77;;;5.40;91.70;;;;;;6165627;23;20025;-92
2021/12/02 04:30:10;;;;;;;5.00;0.57;;;5.50;95.30;;;;;;6190596;23;20047;-92
2021/12/02 04:32:38;;;;;;;8.77;0.68;;;5.50;94.10;;;;;;6165712;23;20017;-91
2021/12/02 04:35:06;;;;;;;2.03;0.68;;;5.60;94.70;;;;;;6190893;23;20031;-92
2021/12/02 04:37:33;;;;;;;5.30;0.45;;;5.60;94.80;;;;;;6191095;23;20024;-92
2021/12/02 04:40:05;;;;;;;3.20;1.00;;;5.50;93.00;;;;;;6190301;23;20017;-91
2021/12/02 04:42:34;;;;;;;1.27;0.20;;;5.50;93.50;;;;;;6166451;23;20108;-92
2021/12/02 04:45:05;;;;;;;4.10;0.60;;;5.50;94.20;;;;;;6215636;23;20059;-92
2021/12/02 04:47:33;;;;;;;3.53;0.55;;;5.50;92.60;;;;;;6189930;23;20095;-92
2021/12/02 04:50:01;;;;;;;4.82;0.90;;;5.40;90.30;;;;;;6189086;23;20051;-92
2021/12/02 04:52:28;;;;;;;7.82;0.60;;;5.50;88.00;;;;;;6165977;23;20017;-91
2021/12/02 04:54:55;;;;;;;2.15;0.30;;;5.50;83.40;;;;;;6190599;23;20024;-91
2021/12/02 04:57:22;;;;;;;3.17;0.40;;;5.60;93.50;;;;;;6190315;23;20013;-91
2021/12/02 04:59:52;;;;;;;3.58;0.38;;;5.60;93.80;;;;;;6189815;23;20021;-92
2021/12/02 05:02:25;;;;;;;1.13;0.35;;;5.60;91.90;;;;;;6165874;23;20016;-92
2021/12/02 05:04:58;;;;;;;4.15;0.50;;;5.60;89.60;;;;;;6190703;23;20066;-92
2021/12/02 05:07:31;;;;;;;1.80;0.43;;;5.60;85.80;;;;;;6194562;23;20017;-94
2021/12/02 05:10:37;;;;;;;4.22;0.45;;;5.60;91.50;;;;;;6215872;23;20031;-92
2021/12/02 05:13:19;;;;;;;7.50;0.50;;;5.40;83.10;;;;;;6168574;23;20017;-93
2021/12/02 14:46:44;;;;;;;1.92;0.28;;;5.60;80.70;;;;;;6219757;23;20027;-91
2021/12/02 15:06:01;;;;;;;;;;;;;;;;;;;;;
2021/12/02 15:09:39;;;;;;;2.20;0.13;;;4.70;90.30;;;;;;5987076;23;20448;-93
2021/12/02 15:17:34;;;;;;;0.73;0.30;;;5.40;96.10;;;;;;6068663;23;20049;-93
2021/12/02 15:26:47;;;;;;;7.63;1.02;;;5.40;92.20;;;;;;6249969;22;20031;-94
2021/12/02 15:29:51;;;;;;;1.02;0.22;;;4.80;90.30;;;;;;6182912;23;20021;-93
2021/12/02 15:32:20;;;;;;;2.65;0.40;;;4.70;93.20;;;;;;6191981;23;20043;-92
2021/12/02 15:34:55;;;;;;;2.15;0.50;;;4.60;94.50;;;;;;6168745;23;20432;-94
2021/12/02 15:37:34;;;;;;;0.47;0.20;;;4.60;91.90;;;;;;6191630;23;20452;-93
2021/12/02 15:40:31;;;;;;;2.33;0.10;;;5.00;97.20;;;;;;6191872;23;20103;-93
2021/12/02 15:43:11;;;;;;;0.60;0.30;;;4.90;93.30;;;;;;6182847;23;20540;-91
2021/12/02 15:46:07;;;;;;;0.40;0.13;;;5.20;94.00;;;;;;6191499;23;20437;-94
2021/12/02 16:05:35;;;;;;;2.53;0.57;;;5.40;95.50;;;;;;6067914;23;20034;-90
2021/12/02 16:08:13;;;;;;;1.60;0.20;;;5.50;95.40;;;;;;6019676;23;20027;-91
2021/12/02 16:11:06;;;;;;;0.70;0.20;;;5.40;95.50;;;;;;6111499;23;20039;-90
2021/12/02 16:13:30;;;;;;;1.33;0.50;;;5.40;95.40;;;;;;6190781;23;20013;-90
2021/12/02 16:15:57;;;;;;;1.40;0.22;;;5.40;95.40;;;;;;6190418;23;20047;-90
2021/12/02 16:18:24;;;;;;;0.30;0.13;;;5.30;95.50;;;;;;6190817;23;20021;-91
2021/12/02 16:20:51;;;;;;;3.15;0.30;;;5.40;95.80;;;;;;6215793;23;20047;-90
2021/12/02 16:23:18;;;;;;;2.28;0.43;;;5.40;95.40;;;;;;6215658;23;20017;-90
2021/12/02 16:25:45;;;;;;;0.38;0.10;;;5.40;95.80;;;;;;6216137;23;20021;-91
2021/12/02 16:28:11;;;;;;;1.17;0.20;;;5.40;95.70;;;;;;6190258;23;20024;-90
2021/12/02 16:30:38;;;;;;;0.32;0.08;;;5.40;95.70;;;;;;6216071;23;20020;-91
2021/12/02 16:33:06;;;;;;;0.82;0.15;;;5.40;95.70;;;;;;6190294;23;20695;-90
2021/12/02 16:35:33;;;;;;;1.83;0.22;;;5.40;95.60;;;;;;6191019;23;20021;-91
2021/12/02 16:38:00;;;;;;;1.45;0.75;;;5.40;95.70;;;;;;6190134;23;20349;-89
2021/12/02 16:40:29;;;;;;;1.25;0.40;;;5.40;95.70;;;;;;6215268;23;20875;-91
2021/12/02 16:43:00;;;;;;;1.20;0.20;;;5.40;95.70;;;;;;6190382;23;20494;-90
2021/12/02 16:45:31;;;;;;;0.85;0.30;;;5.40;95.70;;;;;;6165676;23;20492;-91
2021/12/02 16:47:59;;;;;;;0.47;0.10;;;5.30;96.30;;;;;;6165776;23;20016;-91
2021/12/02 16:50:27;;;;;;;1.10;0.30;;;5.30;96.00;;;;;;6190377;23;20024;-90
2021/12/02 16:52:57;;;;;;;0.70;0.30;;;5.30;95.80;;;;;;6190195;23;20032;-90
2021/12/02 16:55:26;;;;;;;1.17;0.30;;;5.30;95.80;;;;;;6164599;23;20329;-89
2021/12/02 16:57:55;;;;;;;5.10;0.55;;;5.30;96.00;;;;;;6189019;23;20021;-89
2021/12/02 17:00:28;;;;;;;1.27;0.57;;;5.30;95.90;;;;;;6164522;23;20024;-91
2021/12/02 17:03:15;;;;;;;3.47;1.10;;;5.30;95.80;;;;;;6189400;23;20075;-89
2021/12/02 17:05:46;;;;;;;3.25;0.98;;;5.30;96.20;;;;;;6189732;23;20341;-90
2021/12/02 17:08:13;;;;;;;3.58;1.95;;;5.30;96.20;;;;;;6165277;23;20028;-90
2021/12/02 17:10:42;;;;;;;6.20;2.38;;;5.30;96.00;;;;;;6189931;23;20440;-90
2021/12/02 17:13:12;;;;;;;7.53;2.28;;;5.30;95.90;;;;;;6189787;23;20099;-91
2021/12/02 17:15:39;;;;;;;6.00;2.63;;;5.30;95.90;;;;;;6215870;23;20027;-90
2021/12/02 17:18:07;;;;;;;5.47;2.17;;;5.30;95.90;;;;;;6189477;23;20024;-91
2021/12/02 17:20:40;;;;;;;6.60;1.83;;;5.30;95.90;;;;;;6189127;23;20024;-90
2021/12/02 17:23:11;;;;;;;5.93;2.55;;;5.30;95.80;;;;;;6190103;23;20429;-90
2021/12/02 17:25:38;;;;;;;5.00;2.10;;;5.30;96.10;;;;;;6213963;23;20075;-91
2021/12/02 17:28:06;;;;;;;4.72;1.95;;;5.30;96.10;;;;;;6213632;23;20075;-91
2021/12/02 17:30:35;;;;;;;5.05;2.33;;;5.30;96.00;;;;;;6188795;23;20021;-91
2021/12/02 17:33:04;;;;;;;3.47;1.80;;;5.30;96.10;;;;;;6215255;23;20855;-90
2021/12/02 17:35:32;;;;;;;4.13;1.58;;;5.20;95.50;;;;;;6164540;23;20016;-90
2021/12/02 17:38:00;;;;;;;4.18;2.08;;;5.20;96.00;;;;;;6188846;23;20044;-90
2021/12/02 17:40:36;;;;;;;4.63;1.83;;;5.20;96.40;;;;;;6188499;23;20024;-90
2021/12/02 17:43:09;;;;;;;3.65;1.95;;;5.20;96.10;;;;;;6189509;23;20737;-91
2021/12/02 17:45:38;;;;;;;5.32;1.25;;;5.20;96.10;;;;;;6164254;23;20021;-89
2021/12/02 17:48:06;;;;;;;3.55;2.00;;;5.20;96.20;;;;;;6188637;23;20020;-90
2021/12/02 17:50:35;;;;;;;1.77;0.75;;;5.20;96.00;;;;;;6189095;23;20016;-89
2021/12/02 17:53:02;;;;;;;2.22;0.85;;;5.10;93.20;;;;;;6164012;23;20441;-88
2021/12/02 17:55:30;;;;;;;2.35;1.10;;;5.10;96.40;;;;;;6189132;23;20020;-89
2021/12/02 17:57:57;;;;;;;2.38;1.45;;;5.20;96.50;;;;;;6188687;23;20021;-89
2021/12/02 18:00:28;;;;;;;3.17;1.60;;;5.20;96.40;;;;;;6189147;23;20028;-88
2021/12/02 18:02:56;;;;;;;3.38;1.33;;;5.20;96.30;;;;;;6217017;23;20013;-89
2021/12/02 18:05:26;;;;;;;3.13;1.42;;;5.20;96.50;;;;;;6190874;23;20090;-89
2021/12/02 18:07:53;;;;;;;3.53;1.02;;;5.20;96.50;;;;;;6165631;23;20021;-89
2021/12/02 18:10:21;;;;;;;3.55;1.25;;;5.20;96.50;;;;;;6217103;23;20318;-89
2021/12/02 18:12:49;;;;;;;4.03;1.15;;;5.20;96.40;;;;;;6217229;23;20391;-88
2021/12/02 18:15:21;;;;;;;3.05;1.48;;;5.20;96.50;;;;;;6191202;23;20074;-90
2021/12/02 18:18:29;;;;;;;2.08;0.70;;;5.20;96.50;;;;;;6215800;23;20025;-90
2021/12/02 18:21:04;;;;;;;2.47;0.70;;;5.20;96.50;;;;;;6217354;23;20023;-93
2021/12/02 18:23:49;;;;;;;2.40;0.80;;;5.20;96.60;;;;;;6194889;23;20009;-90
2021/12/02 18:26:17;;;;;;;2.92;1.38;;;5.20;96.60;;;;;;6216098;23;20012;-89
2021/12/02 18:28:48;;;;;;;5.10;1.13;;;5.20;96.60;;;;;;6191289;23;20021;-91
2021/12/02 18:31:18;;;;;;;3.22;0.90;;;5.10;96.60;;;;;;6216645;23;20020;-90
2021/12/02 18:33:45;;;;;;;3.58;1.50;;;5.10;96.60;;;;;;6166203;23;20016;-90
2021/12/02 18:36:31;;;;;;;2.92;0.95;;;5.10;96.60;;;;;;6191421;23;20020;-91
2021/12/02 18:43:33;;;;;;;2.25;1.08;;;5.10;96.60;;;;;;6217959;23;20078;-89
2021/12/02 18:46:03;;;;;;;2.60;0.98;;;5.10;96.80;;;;;;6216293;23;20016;-91
2021/12/02 18:48:31;;;;;;;2.53;1.17;;;5.10;96.50;;;;;;6191005;23;20016;-91
2021/12/02 18:51:02;;;;;;;2.20;1.05;;;5.10;96.80;;;;;;6216056;23;20017;-89
2021/12/02 18:53:35;;;;;;;4.85;1.15;;;5.10;96.80;;;;;;6191835;23;20067;-93
2021/12/02 18:56:09;;;;;;;4.13;1.20;;;5.10;96.80;;;;;;6192038;23;20456;-92
2021/12/02 18:58:37;;;;;;;4.72;0.80;;;5.00;96.70;;;;;;6189911;23;20039;-92
2021/12/02 19:01:05;;;;;;;3.63;1.02;;;5.00;96.90;;;;;;6216357;23;20036;-89
2021/12/02 19:03:34;;;;;;;3.22;1.40;;;5.00;96.80;;;;;;6189445;23;20016;-89
2021/12/02 19:28:00;;;;;;;3.05;0.65;;;5.00;97.00;;;;;;6190348;23;20067;-91
2021/12/02 19:30:36;;;;;;;5.63;1.20;;;4.90;96.20;;;;;;6215709;23;20436;-92
2021/12/02 19:33:04;;;;;;;3.08;1.35;;;4.80;97.20;;;;;;6215936;23;20032;-91
2021/12/02 19:35:32;;;;;;;3.63;1.10;;;4.90;97.30;;;;;;6189978;23;20334;-91
2021/12/02 19:38:01;;;;;;;3.50;1.27;;;4.90;97.10;;;;;;6190363;23;20017;-92
2021/12/02 19:40:29;;;;;;;3.50;1.30;;;4.90;97.20;;;;;;6189574;23;20082;-89
2021/12/02 19:43:01;;;;;;;1.67;0.80;;;4.90;97.20;;;;;;6189912;23;20499;-89
2021/12/02 19:45:29;;;;;;;1.42;0.80;;;4.90;97.00;;;;;;6190221;23;20016;-91
2021/12/02 19:47:56;;;;;;;1.92;0.40;;;4.90;96.90;;;;;;6189729;23;20009;-90
2021/12/02 19:50:24;;;;;;;5.95;1.40;;;4.80;97.10;;;;;;6165102;23;20071;-89
2021/12/02 19:52:52;;;;;;;3.47;0.90;;;4.90;97.20;;;;;;6165159;23;20055;-89
2021/12/02 19:55:20;;;;;;;1.88;0.63;;;4.90;97.20;;;;;;6190041;23;20027;-91
2021/12/02 19:57:54;;;;;;;1.60;0.63;;;4.90;97.10;;;;;;6189878;23;20027;-90
2021/12/02 20:00:29;;;;;;;2.38;0.70;;;4.90;96.90;;;;;;6190302;23;20020;-91
2021/12/02 20:03:01;;;;;;;1.75;0.68;;;4.80;97.00;;;;;;6216796;23;20017;-89
2021/12/02 20:05:30;;;;;;;2.72;0.90;;;4.80;97.00;;;;;;6190022;23;20393;-90
2021/12/02 20:07:57;;;;;;;1.73;0.63;;;4.80;97.10;;;;;;6190124;23;20025;-91
2021/12/02 20:10:25;;;;;;;1.58;0.70;;;4.80;97.10;;;;;;6189702;23;20017;-90
2021/12/02 20:12:52;;;;;;;1.38;0.60;;;4.90;97.20;;;;;;6215505;23;20437;-90
2021/12/02 20:18:22;;;;;;;4.13;1.00;;;4.80;97.30;;;;;;6135534;23;20018;-90
2021/12/02 20:20:50;;;;;;;2.45;0.98;;;4.80;97.20;;;;;;6189687;23;20103;-90
2021/12/02 20:23:18;;;;;;;4.65;0.75;;;4.80;97.30;;;;;;6189236;23;20445;-91
2021/12/02 20:25:46;;;;;;;1.42;0.50;;;4.80;97.20;;;;;;6189657;23;20012;-91
2021/12/02 20:28:17;;;;;;;2.88;0.60;;;4.70;97.30;;;;;;6189995;23;20023;-90
2021/12/02 20:30:44;;;;;;;1.45;0.63;;;4.80;97.40;;;;;;6190292;23;20024;-89
2021/12/02 20:33:12;;;;;;;6.40;1.20;;;4.80;97.50;;;;;;6189857;23;20083;-92
2021/12/02 20:35:39;;;;;;;2.17;0.85;;;4.80;97.20;;;;;;6216614;23;20020;-91
2021/12/02 20:38:08;;;;;;;2.35;1.08;;;4.70;97.30;;;;;;6188890;23;20111;-92
2021/12/02 20:40:35;;;;;;;4.25;1.13;;;4.70;97.40;;;;;;6188918;23;20048;-91
2021/12/02 20:43:02;;;;;;;3.42;1.20;;;4.70;97.40;;;;;;6188762;23;20017;-93
2021/12/02 20:45:31;;;;;;;3.63;1.52;;;4.70;97.40;;;;;;6189348;23;20103;-90
2021/12/02 20:48:15;;;;;;;2.88;1.17;;;4.70;97.30;;;;;;6214075;23;20020;-91
2021/12/02 20:50:44;;;;;;;3.60;1.67;;;4.70;97.40;;;;;;6190637;23;20433;-90
2021/12/02 20:53:13;;;;;;;4.35;1.25;;;4.70;97.40;;;;;;6189756;23;20025;-90
2021/12/02 20:55:40;;;;;;;3.00;1.30;;;4.70;97.40;;;;;;6190467;23;20078;-90
2021/12/02 20:58:11;;;;;;;4.00;1.35;;;4.70;97.40;;;;;;6189824;23;20051;-90
2021/12/02 21:00:38;;;;;;;3.67;1.80;;;4.60;97.30;;;;;;6189710;23;20083;-90
2021/12/02 21:03:06;;;;;;;5.18;1.23;;;4.60;97.50;;;;;;6189032;23;20017;-90
2021/12/02 21:05:36;;;;;;;3.53;1.23;;;4.60;97.60;;;;;;6190772;23;20024;-89
2021/12/02 21:08:06;;;;;;;4.00;1.52;;;4.60;97.50;;;;;;6189265;23;20024;-89
2021/12/02 21:10:34;;;;;;;4.38;1.35;;;4.60;97.70;;;;;;6189857;23;20020;-90
2021/12/02 21:13:05;;;;;;;1.75;0.98;;;4.60;97.70;;;;;;6189170;23;20024;-90
2021/12/02 21:15:33;;;;;;;2.25;0.93;;;4.60;97.80;;;;;;6215327;23;20043;-89
2021/12/02 21:18:01;;;;;;;4.40;1.42;;;4.60;97.70;;;;;;6189535;23;20017;-89
2021/12/02 21:20:32;;;;;;;3.38;1.02;;;4.60;97.80;;;;;;6188783;23;20027;-89
2021/12/02 21:23:01;;;;;;;2.78;1.23;;;4.50;97.70;;;;;;6189251;23;20020;-90
2021/12/02 21:25:29;;;;;;;4.47;1.08;;;4.50;97.90;;;;;;6188844;23;20083;-90
2021/12/02 21:27:56;;;;;;;1.67;0.88;;;4.50;97.90;;;;;;6189120;23;20027;-90
2021/12/02 21:30:25;;;;;;;3.45;1.25;;;4.50;97.80;;;;;;6189766;23;20029;-91
2021/12/02 21:32:54;;;;;;;2.10;0.90;;;4.50;98.00;;;;;;6188859;23;20058;-90
2021/12/02 21:35:22;;;;;;;1.98;0.70;;;4.50;97.90;;;;;;6189229;23;20020;-90
2021/12/02 21:37:55;;;;;;;2.95;1.40;;;4.50;97.90;;;;;;6188791;23;20024;-88
2021/12/02 21:40:27;;;;;;;2.33;0.77;;;4.50;98.00;;;;;;6188887;23;20024;-90
2021/12/02 21:42:54;;;;;;;2.40;0.82;;;4.50;97.90;;;;;;6214760;23;20017;-90
2021/12/02 21:45:22;;;;;;;2.47;0.80;;;4.50;97.90;;;;;;6214914;23;20067;-90
2021/12/02 21:47:49;;;;;;;1.30;0.47;;;4.50;98.00;;;;;;6214306;23;20017;-90
2021/12/02 21:50:20;;;;;;;1.55;0.70;;;4.40;98.10;;;;;;6188616;23;20021;-90
2021/12/02 21:52:49;;;;;;;1.95;1.00;;;4.50;98.20;;;;;;6189550;23;20021;-89
2021/12/02 21:55:18;;;;;;;2.05;0.80;;;4.50;98.20;;;;;;6189141;23;20020;-89
2021/12/02 21:57:45;;;;;;;4.57;1.33;;;4.50;98.10;;;;;;6214306;23;20114;-89
2021/12/02 22:00:16;;;;;;;1.95;0.60;;;4.50;98.00;;;;;;6164685;23;20055;-90
2021/12/02 22:02:45;;;;;;;0.85;0.38;;;4.50;98.10;;;;;;6190189;23;20017;-91
2021/12/02 22:05:25;;;;;;;1.58;0.40;;;4.50;98.20;;;;;;6191104;23;20091;-91
2021/12/02 22:08:12;;;;;;;3.15;0.85;;;4.40;97.90;;;;;;6217051;23;20020;-92
2021/12/02 22:10:47;;;;;;;2.55;0.60;;;4.40;98.10;;;;;;6189168;23;20016;-91
2021/12/02 22:13:22;;;;;;;3.88;0.77;;;4.40;98.30;;;;;;6214968;23;20029;-91
2021/12/02 22:15:49;;;;;;;2.55;0.95;;;4.40;98.30;;;;;;6190552;23;20052;-91
2021/12/02 22:18:16;;;;;;;2.00;0.40;;;4.40;98.30;;;;;;6189989;23;20440;-89
2021/12/02 22:20:44;;;;;;;1.80;0.75;;;4.40;98.10;;;;;;6216445;23;20087;-92
2021/12/02 22:23:12;;;;;;;0.85;0.40;;;4.40;98.30;;;;;;6190564;23;20108;-90
2021/12/02 22:25:39;;;;;;;1.27;0.68;;;4.40;98.60;;;;;;6190200;23;20036;-90
2021/12/02 22:28:06;;;;;;;2.90;0.68;;;4.40;98.30;;;;;;6189834;23;20013;-91
2021/12/02 22:30:34;;;;;;;1.77;0.70;;;4.40;98.20;;;;;;6189910;23;20016;-92
2021/12/02 22:33:01;;;;;;;1.80;0.60;;;4.40;98.40;;;;;;6190291;23;20082;-91
2021/12/02 22:35:28;;;;;;;1.88;0.77;;;4.40;98.30;;;;;;6190187;23;20024;-89
2021/12/02 22:37:59;;;;;;;2.10;0.90;;;4.40;98.30;;;;;;6165201;23;20111;-90
2021/12/02 22:40:28;;;;;;;0.55;0.40;;;4.40;98.30;;;;;;6189881;23;20025;-91
2021/12/02 22:43:01;;;;;;;3.35;0.70;;;4.40;98.50;;;;;;6164994;23;20024;-91
2021/12/02 22:45:28;;;;;;;3.22;0.70;;;4.40;98.40;;;;;;6165008;23;20047;-92
2021/12/02 22:47:56;;;;;;;5.55;0.90;;;4.40;98.80;;;;;;6191147;23;20053;-90
2021/12/02 22:50:26;;;;;;;1.13;0.43;;;4.30;98.70;;;;;;6217004;23;20016;-92
2021/12/02 22:52:53;;;;;;;2.10;0.50;;;4.40;98.60;;;;;;6216890;23;20090;-92
2021/12/02 22:55:25;;;;;;;0.95;0.30;;;4.40;98.70;;;;;;6191640;23;20055;-92
2021/12/02 22:57:52;;;;;;;2.08;0.30;;;4.40;98.60;;;;;;6192315;23;20017;-91
2021/12/02 23:00:34;;;;;;;2.22;0.22;;;4.40;98.50;;;;;;6217095;23;20020;-92
2021/12/02 23:03:02;;;;;;;7.75;0.80;;;4.40;98.60;;;;;;6191418;23;20440;-94
2021/12/02 23:05:30;;;;;;;0.65;0.32;;;4.30;98.40;;;;;;6191504;23;20047;-93
2021/12/02 23:07:57;;;;;;;0.93;0.40;;;4.30;98.50;;;;;;6191308;23;20021;-93
2021/12/02 23:10:25;;;;;;;3.03;0.40;;;4.30;98.40;;;;;;6191399;23;20013;-92
2021/12/02 23:12:55;;;;;;;2.70;0.20;;;4.30;98.00;;;;;;6217134;23;20020;-92
2021/12/02 23:15:22;;;;;;;1.67;0.82;;;4.30;98.00;;;;;;6191688;23;20086;-93
2021/12/02 23:17:52;;;;;;;1.45;0.30;;;4.20;98.50;;;;;;6190685;23;20059;-93
2021/12/02 23:20:20;;;;;;;3.15;0.22;;;4.20;97.80;;;;;;6191689;23;20063;-93
2021/12/02 23:22:48;;;;;;;3.70;0.60;;;4.30;97.70;;;;;;6191276;23;20043;-91
2021/12/02 23:25:19;;;;;;;1.30;0.20;;;4.20;97.00;;;;;;6191695;23;20024;-91
2021/12/02 23:30:48;;;;;;;2.30;0.45;;;4.30;97.60;;;;;;6191611;23;20021;-92
2021/12/02 23:33:23;;;;;;;4.15;0.40;;;4.30;97.50;;;;;;6216033;23;20025;-91
2021/12/02 23:35:54;;;;;;;1.42;0.30;;;4.20;97.40;;;;;;6166437;23;20024;-94
2021/12/02 23:38:26;;;;;;;4.82;0.75;;;4.30;96.20;;;;;;6191120;23;20027;-93
2021/12/02 23:40:55;;;;;;;2.88;0.55;;;4.30;97.00;;;;;;6191284;23;20020;-92
2021/12/02 23:43:23;;;;;;;2.65;0.50;;;4.30;96.70;;;;;;6190853;23;20016;-91
2021/12/02 23:45:52;;;;;;;3.47;0.50;;;4.20;95.30;;;;;;6190899;23;20039;-91
2021/12/02 23:48:21;;;;;;;4.00;0.40;;;4.30;97.80;;;;;;6191058;23;20016;-93
2021/12/02 23:50:49;;;;;;;2.08;0.32;;;4.40;97.80;;;;;;6190818;23;20437;-94
2021/12/02 23:53:17;;;;;;;0.95;0.13;;;4.40;97.80;;;;;;6190796;23;20035;-94
2021/12/02 23:55:44;;;;;;;1.45;0.30;;;4.30;97.90;;;;;;6191202;23;20025;-94
2021/12/02 23:58:12;;;;;;;0.93;0.20;;;4.40;97.80;;;;;;6190433;23;20103;-91
